createdAt,value
2023-05-18T00:00:00.222Z,91
2023-05-18T00:04:00.291Z,91
2023-05-18T00:08:00.195Z,91
2023-05-18T00:12:00.193Z,91
2023-05-18T00:16:00.314Z,91
2023-05-18T00:20:00.252Z,91
2023-05-18T00:24:00.206Z,91
2023-05-18T00:28:00.193Z,91
2023-05-18T00:32:00.260Z,91
2023-05-18T00:36:00.210Z,91
2023-05-18T00:40:00.234Z,91
2023-05-18T00:44:00.208Z,91
2023-05-18T00:48:00.252Z,91
2023-05-18T00:52:00.191Z,91
2023-05-18T00:56:00.214Z,92
2023-05-18T01:00:00.225Z,92
2023-05-18T01:04:00.218Z,92
2023-05-18T01:08:00.208Z,92
2023-05-18T01:12:00.227Z,92
2023-05-18T01:16:00.200Z,92
2023-05-18T01:20:00.206Z,92
2023-05-18T01:24:00.202Z,92
2023-05-18T01:28:00.201Z,92
2023-05-18T01:32:00.201Z,92
2023-05-18T01:36:00.203Z,92
2023-05-18T01:40:00.240Z,92
2023-05-18T01:44:00.211Z,92
2023-05-18T01:48:00.310Z,92
2023-05-18T01:52:00.212Z,92
2023-05-18T01:56:00.201Z,92
2023-05-18T02:00:00.340Z,92
2023-05-18T02:04:00.352Z,92
2023-05-18T02:08:00.219Z,92
2023-05-18T02:12:00.204Z,92
2023-05-18T02:16:00.217Z,92
2023-05-18T02:20:00.261Z,92
2023-05-18T02:24:00.196Z,92
2023-05-18T02:28:00.198Z,92
2023-05-18T02:32:00.287Z,91
2023-05-18T02:36:00.192Z,91
2023-05-18T02:40:00.215Z,91
2023-05-18T02:44:00.189Z,91
2023-05-18T02:48:00.253Z,91
2023-05-18T02:52:00.195Z,92
2023-05-18T02:56:00.199Z,92
2023-05-18T03:00:00.192Z,92
2023-05-18T03:04:00.246Z,92
2023-05-18T03:08:00.189Z,92
2023-05-18T03:12:00.226Z,92
2023-05-18T03:16:00.193Z,92
2023-05-18T03:20:00.247Z,92
2023-05-18T03:24:00.183Z,92
2023-05-18T03:28:00.243Z,92
2023-05-18T03:32:00.194Z,92
2023-05-18T03:36:00.210Z,92
2023-05-18T03:40:00.271Z,92
2023-05-18T03:44:00.197Z,92
2023-05-18T03:48:00.249Z,92
2023-05-18T03:52:00.213Z,92
2023-05-18T03:56:00.189Z,92
2023-05-18T04:00:00.198Z,92
2023-05-18T04:04:00.241Z,92
2023-05-18T04:08:00.193Z,92
2023-05-18T04:12:00.205Z,92
2023-05-18T04:16:00.278Z,92
2023-05-18T04:20:00.210Z,93
2023-05-18T04:24:00.200Z,91
2023-05-18T04:28:00.215Z,91
2023-05-18T04:32:00.275Z,91
2023-05-18T04:36:00.206Z,91
2023-05-18T04:40:00.206Z,92
2023-05-18T04:44:00.190Z,91
2023-05-18T04:48:00.261Z,91
2023-05-18T04:52:00.186Z,92
2023-05-18T04:56:00.212Z,91
2023-05-18T05:00:00.218Z,92
2023-05-18T05:04:00.297Z,92
2023-05-18T05:08:00.178Z,92
2023-05-18T05:12:00.213Z,92
2023-05-18T05:16:00.293Z,92
2023-05-18T05:20:00.207Z,92
2023-05-18T05:24:00.215Z,92
2023-05-18T05:28:00.194Z,92
2023-05-18T05:32:00.305Z,92
2023-05-18T05:36:00.207Z,92
2023-05-18T05:40:00.204Z,92
2023-05-18T05:44:00.209Z,92
2023-05-18T05:48:00.244Z,92
2023-05-18T05:52:00.205Z,92
2023-05-18T05:56:00.187Z,91
2023-05-18T06:00:00.220Z,91
2023-05-18T06:04:00.299Z,91
2023-05-18T06:08:00.217Z,91
2023-05-18T06:12:00.233Z,90
2023-05-18T06:16:00.221Z,89
2023-05-18T06:20:00.223Z,89
2023-05-18T06:24:00.218Z,88
2023-05-18T06:28:00.207Z,87
2023-05-18T06:32:00.267Z,86
2023-05-18T06:36:00.194Z,86
2023-05-18T06:40:00.207Z,85
2023-05-18T06:44:00.219Z,85
2023-05-18T06:48:00.221Z,85
2023-05-18T06:52:00.241Z,85
2023-05-18T06:56:00.250Z,82
2023-05-18T07:00:00.199Z,80
2023-05-18T07:04:00.300Z,76
2023-05-18T07:08:00.266Z,79
2023-05-18T07:12:00.191Z,79
2023-05-18T07:16:00.258Z,78
2023-05-18T07:20:00.266Z,77
2023-05-18T07:24:00.225Z,73
2023-05-18T07:28:00.191Z,71
2023-05-18T07:32:00.362Z,65
2023-05-18T07:36:00.196Z,56
2023-05-18T07:40:00.219Z,43
2023-05-18T07:44:00.195Z,50
2023-05-18T07:48:00.294Z,50
2023-05-18T07:52:00.221Z,49
2023-05-18T07:56:00.215Z,46
2023-05-18T08:00:00.247Z,42
2023-05-18T08:04:00.359Z,46
2023-05-18T08:08:00.197Z,46
2023-05-18T08:12:00.210Z,45
2023-05-18T08:16:11.045Z,47
2023-05-18T08:20:00.262Z,45
2023-05-18T08:24:00.205Z,44
2023-05-18T08:28:00.197Z,42
2023-05-18T08:32:00.318Z,40
2023-05-18T08:36:00.198Z,41
2023-05-18T08:40:00.199Z,39
2023-05-18T08:44:00.201Z,39
2023-05-18T08:48:00.293Z,39
2023-05-18T08:52:00.199Z,39
2023-05-18T08:56:00.211Z,40
2023-05-18T09:00:00.317Z,40
2023-05-18T09:04:00.197Z,40
2023-05-18T09:08:00.191Z,42
2023-05-18T09:12:00.201Z,41
2023-05-18T09:16:00.246Z,43
2023-05-18T09:20:00.312Z,41
2023-05-18T09:24:00.193Z,39
2023-05-18T09:28:00.200Z,39
2023-05-18T09:32:00.464Z,41
2023-05-18T09:36:00.192Z,42
2023-05-18T09:40:00.362Z,43
2023-05-18T09:44:00.190Z,41
2023-05-18T09:48:00.226Z,40
2023-05-18T09:52:00.239Z,38
2023-05-18T09:56:00.204Z,39
2023-05-18T10:00:00.219Z,39
2023-05-18T10:04:00.235Z,39
2023-05-18T10:08:00.221Z,36
2023-05-18T10:12:00.199Z,37
2023-05-18T10:16:00.217Z,34
2023-05-18T10:20:00.221Z,34
2023-05-18T10:24:00.211Z,34
2023-05-18T10:28:00.193Z,32
2023-05-18T10:32:02.959Z,32
2023-05-18T10:36:00.188Z,33
2023-05-18T10:40:00.232Z,33
2023-05-18T10:44:00.208Z,32
2023-05-18T10:48:00.341Z,32
2023-05-18T10:52:00.212Z,32
2023-05-18T10:56:00.221Z,33
2023-05-18T11:00:00.204Z,33
2023-05-18T11:04:00.205Z,33
2023-05-18T11:08:00.193Z,34
2023-05-18T11:12:00.297Z,34
2023-05-18T11:16:00.234Z,35
2023-05-18T11:20:00.239Z,36
2023-05-18T11:24:00.199Z,35
2023-05-18T11:28:00.218Z,33
2023-05-18T11:32:01.249Z,33
2023-05-18T11:36:00.223Z,33
2023-05-18T11:40:03.868Z,32
2023-05-18T11:44:00.219Z,32
2023-05-18T11:48:00.288Z,33
2023-05-18T11:52:00.210Z,33
2023-05-18T11:56:00.196Z,32
2023-05-18T12:00:00.240Z,32
2023-05-18T12:04:00.266Z,31
2023-05-18T12:08:00.209Z,31
2023-05-18T12:12:00.221Z,31
2023-05-18T12:16:00.196Z,31
2023-05-18T12:20:00.191Z,31
2023-05-18T12:24:00.206Z,31
2023-05-18T12:28:00.201Z,31
2023-05-18T12:32:00.209Z,31
2023-05-18T12:36:00.177Z,30
2023-05-18T12:40:00.207Z,30
2023-05-18T12:44:00.182Z,30
2023-05-18T12:48:00.276Z,30
2023-05-18T12:52:00.206Z,31
2023-05-18T12:56:00.215Z,31
2023-05-18T13:00:00.209Z,31
2023-05-18T13:04:00.375Z,30
2023-05-18T13:08:00.192Z,31
2023-05-18T13:12:07.419Z,30
2023-05-18T13:16:00.218Z,30
2023-05-18T13:20:00.206Z,27
2023-05-18T13:24:00.189Z,28
2023-05-18T13:28:00.195Z,28
2023-05-18T13:32:00.279Z,29
2023-05-18T13:36:00.199Z,29
2023-05-18T13:40:00.270Z,28
2023-05-18T13:44:00.225Z,28
2023-05-18T13:48:00.233Z,26
2023-05-18T13:52:00.240Z,27
2023-05-18T13:56:00.235Z,26
2023-05-18T14:00:00.215Z,25
2023-05-18T14:04:00.214Z,27
2023-05-18T14:08:00.226Z,27
2023-05-18T14:12:00.246Z,27
2023-05-18T14:16:00.210Z,27
2023-05-18T14:20:00.261Z,29
2023-05-18T14:24:00.212Z,29
2023-05-18T14:28:00.198Z,30
2023-05-18T14:32:00.195Z,30
2023-05-18T14:36:00.203Z,30
2023-05-18T14:40:00.246Z,30
2023-05-18T14:44:00.184Z,31
2023-05-18T14:48:00.230Z,31
2023-05-18T14:52:00.191Z,31
2023-05-18T14:56:00.211Z,31
2023-05-18T15:00:00.221Z,31
2023-05-18T15:04:00.280Z,32
2023-05-18T15:08:00.208Z,32
2023-05-18T15:12:00.208Z,32
2023-05-18T15:16:00.271Z,33
2023-05-18T15:20:00.252Z,32
2023-05-18T15:24:00.188Z,32
2023-05-18T15:28:00.202Z,33
2023-05-18T15:32:00.249Z,33
2023-05-18T15:36:00.217Z,33
2023-05-18T15:40:00.193Z,33
2023-05-18T15:44:00.213Z,32
2023-05-18T15:48:00.260Z,33
2023-05-18T15:52:00.184Z,33
2023-05-18T15:56:00.206Z,32
2023-05-18T16:00:00.226Z,33
2023-05-18T16:04:00.278Z,33
2023-05-18T16:08:00.184Z,33
2023-05-18T16:12:00.219Z,34
2023-05-18T16:16:00.207Z,33
2023-05-18T16:20:02.733Z,34
2023-05-18T16:24:00.227Z,34
2023-05-18T16:28:00.234Z,34
2023-05-18T16:32:00.296Z,34
2023-05-18T16:36:00.241Z,34
2023-05-18T16:40:00.399Z,34
2023-05-18T16:44:00.204Z,33
2023-05-18T16:48:00.256Z,32
2023-05-18T16:52:00.214Z,32
2023-05-18T16:56:00.201Z,33
2023-05-18T17:00:00.241Z,32
2023-05-18T17:04:00.342Z,32
2023-05-18T17:08:00.191Z,32
2023-05-18T17:12:00.228Z,32
2023-05-18T17:16:00.263Z,32
2023-05-18T17:20:00.226Z,33
2023-05-18T17:24:00.226Z,32
2023-05-18T17:28:00.190Z,33
2023-05-18T17:32:00.260Z,33
2023-05-18T17:36:00.203Z,33
2023-05-18T17:40:00.223Z,32
2023-05-18T17:44:00.188Z,33
2023-05-18T17:48:00.281Z,33
2023-05-18T17:52:00.203Z,33
2023-05-18T17:56:00.190Z,34
2023-05-18T18:00:00.220Z,34
2023-05-18T18:04:00.244Z,34
2023-05-18T18:08:00.211Z,35
2023-05-18T18:12:00.181Z,35
2023-05-18T18:16:00.223Z,36
2023-05-18T18:20:00.207Z,36
2023-05-18T18:24:00.268Z,37
2023-05-18T18:28:00.237Z,38
2023-05-18T18:32:00.186Z,39
2023-05-18T18:36:00.255Z,40
2023-05-18T18:40:00.201Z,40
2023-05-18T18:44:00.204Z,41
2023-05-18T18:48:00.254Z,42
2023-05-18T18:52:00.214Z,44
2023-05-18T18:56:00.204Z,44
2023-05-18T19:00:00.230Z,44
2023-05-18T19:04:00.197Z,45
2023-05-18T19:08:00.196Z,45
2023-05-18T19:12:00.181Z,46
2023-05-18T19:16:00.245Z,46
2023-05-18T19:20:00.245Z,46
2023-05-18T19:24:00.210Z,47
2023-05-18T19:28:00.222Z,48
2023-05-18T19:32:00.281Z,48
2023-05-18T19:36:00.234Z,48
2023-05-18T19:40:00.213Z,49
2023-05-18T19:44:00.214Z,49
2023-05-18T19:48:00.247Z,49
2023-05-18T19:52:00.217Z,49
2023-05-18T19:56:00.189Z,50
2023-05-18T20:00:00.444Z,50
2023-05-18T20:04:00.388Z,51
2023-05-18T20:08:00.200Z,52
2023-05-18T20:12:00.210Z,52
2023-05-18T20:16:00.215Z,53
2023-05-18T20:20:00.290Z,53
2023-05-18T20:24:00.235Z,54
2023-05-18T20:28:00.210Z,56
2023-05-18T20:32:00.210Z,56
2023-05-18T20:36:00.228Z,56
2023-05-18T20:40:00.232Z,56
2023-05-18T20:44:00.174Z,56
2023-05-18T20:48:00.595Z,56
2023-05-18T20:52:00.188Z,56
2023-05-18T20:56:00.255Z,57
2023-05-18T21:00:00.227Z,57
2023-05-18T21:04:00.524Z,57
2023-05-18T21:08:00.212Z,58
2023-05-18T21:12:00.237Z,57
2023-05-18T21:16:00.269Z,57
2023-05-18T21:20:00.313Z,58
2023-05-18T21:24:00.228Z,59
2023-05-18T21:28:00.285Z,58
2023-05-18T21:32:00.380Z,59
2023-05-18T21:36:00.190Z,59
2023-05-18T21:40:00.358Z,58
2023-05-18T21:44:00.198Z,58
2023-05-18T21:48:00.355Z,58
2023-05-18T21:52:00.197Z,59
2023-05-18T21:56:00.220Z,58
2023-05-18T22:00:00.200Z,58
2023-05-18T22:04:00.265Z,59
2023-05-18T22:08:00.193Z,59
2023-05-18T22:12:00.222Z,59
2023-05-18T22:16:00.232Z,59
2023-05-18T22:20:00.272Z,59
2023-05-18T22:24:00.205Z,59
2023-05-18T22:28:00.195Z,59
2023-05-18T22:32:00.246Z,59
2023-05-18T22:36:00.197Z,59
2023-05-18T22:40:00.206Z,59
2023-05-18T22:44:00.196Z,59
2023-05-18T22:48:00.252Z,59
2023-05-18T22:52:00.178Z,59
2023-05-18T22:56:00.215Z,60
2023-05-18T23:00:00.244Z,60
2023-05-18T23:04:00.205Z,60
2023-05-18T23:08:00.187Z,60
2023-05-18T23:12:00.212Z,61
2023-05-18T23:16:00.267Z,61
2023-05-18T23:20:00.215Z,61
2023-05-18T23:24:00.185Z,61
2023-05-18T23:28:00.188Z,61
2023-05-18T23:32:00.263Z,61
2023-05-18T23:36:00.221Z,62
2023-05-18T23:40:00.205Z,62
2023-05-18T23:44:00.192Z,61
2023-05-18T23:48:00.256Z,61
2023-05-18T23:52:00.188Z,63
2023-05-18T23:56:00.284Z,63
